Portada
METAR-TAF:

METAR-TAF

Aeroports :

Chicago Rockford International Airport

Rockford, Illinois, Estats Units d'Amèrica

latitud: 42-11-34N, longitud: 089-05-36W, altitud: 224 m

Observació

L'informe es va fer fa 1 hora i 10 minuts, a les 16:54 UTC
Vent 6 kt del Sud/Sud-Oest
Temperatura -2°C
Humitat 80%
Pressió 1025 hPa
Visibilitat: 6.4 km
Escasses núvols a una alçada de 1000 ft
calitja

METAR: KRFD 101654Z 20006KT 4SM HZ FEW010 M02/M05 A3028 RMK AO2 SLP266 T10171050

Hora: 12:04 (18:04 UTC)

Pronòstic

L'informe es va fer fa 24 minuts, a les 17:40 UTC
Pronòstic vàlid del 10 a les 18 UTC al 11 a les 18 UTC
Vent 8 kt del Oest/Sud-Oest
Visibilitat: 10 km
Escasses núvols a una alçada de 25000 ft
Temporalment
l' 10 a les 18 UTC al 10 a les 20 UTC
Visibilitat: 8.0 km
boirina

TAF: KRFD 101740Z 1018/1118 24008KT P6SM FEW250 TEMPO 1018/1020 5SM BR

Observacions i pronòstics meteorològics de més de 4000 aeroports (METAR i TAF).

Les estacions disponibles són els punts grocs i vermells al mapa.

Posi el ratolí al punt desitjat per veure el nom de l'estació.

Feu clic per veure les observacions i els pronòstics meteorològics.

Per canviar el mapa: feu clic els botons verds amb una creu de color negre per apropar; al botó verd amb un guió per allunyar la imatge; o en les fletxes verdes per a mapes adjacents.


METAR-TAF: